Time;durP1;ratioP1;P1;durP2;ratioP2;P2;SDS_P1;SDS_P2;PMS_P1;PMS_P2;Temp;Humidity;BMP_temperature;BMP_pressure;BME280_temperature;BME280_humidity;BME280_pressure;Samples;Min_cycle;Max_cycle;Signal;HPM_P1;HPM_P2
2022/09/22 00:01:37;;;;;;;2.70;2.28;;;6.40;99.90;;;;;;5010428;28;20203;-69
2022/09/22 00:04:07;;;;;;;2.78;2.47;;;6.50;99.90;;;;;;5010955;28;20229;-69
2022/09/22 00:06:37;;;;;;;6.57;3.20;;;6.40;99.90;;;;;;5035212;23;20422;-93
2022/09/22 00:09:06;;;;;;;5.53;2.30;;;6.40;99.90;;;;;;5015076;28;20218;-94
2022/09/22 00:11:34;;;;;;;3.00;2.70;;;6.40;99.90;;;;;;5014586;28;20207;-94
2022/09/22 00:14:04;;;;;;;2.78;2.42;;;6.40;99.90;;;;;;5014908;28;20680;-94
2022/09/22 00:16:33;;;;;;;2.90;2.60;;;6.30;99.90;;;;;;5014927;28;20230;-94
2022/09/22 00:19:00;;;;;;;3.75;2.25;;;6.40;99.90;;;;;;5015060;28;20214;-94
2022/09/22 00:21:31;;;;;;;3.95;2.83;;;6.40;99.90;;;;;;5020582;28;20221;-93
2022/09/22 00:24:01;;;;;;;5.30;2.45;;;6.30;99.90;;;;;;5016454;28;20218;-93
2022/09/22 00:26:27;;;;;;;3.50;2.40;;;6.30;99.90;;;;;;5015516;28;20237;-94
2022/09/22 00:28:54;;;;;;;3.08;2.33;;;6.30;99.90;;;;;;5015377;28;20207;-93
2022/09/22 00:31:23;;;;;;;2.75;2.47;;;6.30;99.90;;;;;;5015292;28;20207;-93
2022/09/22 00:33:50;;;;;;;3.60;3.05;;;6.30;99.90;;;;;;5022122;28;20273;-94
2022/09/22 00:36:18;;;;;;;2.63;2.38;;;6.30;99.90;;;;;;5026917;28;20218;-91
2022/09/22 00:38:49;;;;;;;3.10;2.80;;;6.30;99.90;;;;;;5023070;28;20218;-92
2022/09/22 00:41:18;;;;;;;2.97;2.17;;;6.20;99.90;;;;;;5018164;28;20660;-91
2022/09/22 00:43:49;;;;;;;2.95;2.63;;;6.20;99.90;;;;;;5018429;28;20208;-92
2022/09/22 00:46:21;;;;;;;2.35;2.15;;;6.20;99.90;;;;;;5018044;28;20276;-92
2022/09/22 00:48:52;;;;;;;3.35;2.38;;;6.20;99.90;;;;;;5018114;28;20656;-92
2022/09/22 00:51:24;;;;;;;2.88;2.55;;;6.20;99.90;;;;;;5018016;28;20211;-93
2022/09/22 00:53:54;;;;;;;3.10;2.60;;;6.20;99.90;;;;;;5018214;28;20223;-92
2022/09/22 00:56:24;;;;;;;2.20;2.00;;;6.10;99.90;;;;;;5017875;28;20238;-92
2022/09/22 00:58:58;;;;;;;2.40;2.20;;;6.10;99.90;;;;;;5017833;28;20255;-92
2022/09/22 01:01:25;;;;;;;2.65;2.38;;;6.10;99.90;;;;;;5018046;28;20614;-92
2022/09/22 01:03:55;;;;;;;4.25;2.75;;;6.10;99.90;;;;;;5017412;28;20218;-92
2022/09/22 01:06:25;;;;;;;4.15;2.78;;;6.00;99.90;;;;;;5017152;28;20238;-91
2022/09/22 01:08:54;;;;;;;2.60;2.40;;;6.00;99.90;;;;;;5017639;28;20209;-92
2022/09/22 01:11:22;;;;;;;2.88;2.10;;;6.00;99.90;;;;;;5016791;28;20209;-92
2022/09/22 01:13:57;;;;;;;2.45;2.25;;;6.00;99.90;;;;;;5018124;28;20203;-92
2022/09/22 01:16:34;;;;;;;2.63;2.42;;;6.00;99.90;;;;;;5017759;28;20227;-92
2022/09/22 01:19:35;;;;;;;3.85;2.72;;;6.00;99.90;;;;;;5018165;28;20206;-92
2022/09/22 01:22:12;;;;;;;3.33;2.63;;;5.90;99.90;;;;;;5017742;28;20206;-92
2022/09/22 01:25:01;;;;;;;3.90;2.53;;;5.90;99.90;;;;;;5017405;28;20201;-92
2022/09/22 01:28:02;;;;;;;2.85;2.55;;;5.90;99.90;;;;;;5017367;28;20214;-91
2022/09/22 01:30:36;;;;;;;2.53;2.10;;;5.90;99.90;;;;;;5017770;28;20678;-92
2022/09/22 01:33:16;;;;;;;3.60;2.10;;;5.90;99.90;;;;;;5018188;28;20202;-94
2022/09/22 01:35:55;;;;;;;2.78;2.53;;;5.90;99.90;;;;;;5017381;28;20231;-94
2022/09/22 01:38:30;;;;;;;2.63;2.28;;;5.80;99.90;;;;;;5017688;28;20202;-92
2022/09/22 01:41:02;;;;;;;2.80;2.47;;;5.80;99.90;;;;;;5017524;28;20710;-91
2022/09/22 01:43:35;;;;;;;2.33;2.13;;;5.80;99.90;;;;;;5017189;28;20210;-92
2022/09/22 01:46:09;;;;;;;3.95;2.10;;;5.80;99.90;;;;;;5017237;28;20231;-92
2022/09/22 01:48:49;;;;;;;3.03;2.38;;;5.80;99.90;;;;;;5015627;28;20211;-92
2022/09/22 01:51:19;;;;;;;3.15;2.65;;;5.80;99.90;;;;;;5017181;28;20218;-91
2022/09/22 01:53:51;;;;;;;3.30;2.15;;;5.70;99.90;;;;;;5016985;28;20207;-92
2022/09/22 01:56:20;;;;;;;3.33;2.10;;;5.70;99.90;;;;;;5017375;28;20231;-92
2022/09/22 01:58:52;;;;;;;2.33;1.92;;;5.70;99.90;;;;;;5017894;28;20214;-92
2022/09/22 02:01:25;;;;;;;3.00;2.45;;;5.70;99.90;;;;;;5016554;28;20202;-91
2022/09/22 02:03:58;;;;;;;2.20;2.00;;;5.70;99.90;;;;;;5017409;28;20206;-94
2022/09/22 02:06:28;;;;;;;3.45;2.28;;;5.70;99.90;;;;;;5017387;28;20293;-94
2022/09/22 02:09:00;;;;;;;2.17;1.98;;;5.70;99.90;;;;;;5017299;28;20227;-92
2022/09/22 02:11:26;;;;;;;1.88;1.77;;;5.70;99.90;;;;;;5016959;28;20194;-91
2022/09/22 02:13:54;;;;;;;3.80;2.30;;;5.70;99.90;;;;;;5016833;28;20207;-95
2022/09/22 02:16:26;;;;;;;2.53;2.33;;;5.70;99.90;;;;;;5017183;28;20716;-94
2022/09/22 02:18:56;;;;;;;3.55;2.33;;;5.60;99.90;;;;;;5017229;28;20275;-95
2022/09/22 02:21:26;;;;;;;2.40;2.20;;;5.60;99.90;;;;;;5017188;28;20203;-95
2022/09/22 02:23:53;;;;;;;2.25;2.05;;;5.60;99.90;;;;;;5017590;28;20218;-94
2022/09/22 02:26:22;;;;;;;3.28;2.05;;;5.60;99.90;;;;;;5017118;28;20227;-94
2022/09/22 02:28:53;;;;;;;3.25;2.08;;;5.60;99.90;;;;;;5017294;28;20676;-94
2022/09/22 02:31:23;;;;;;;3.92;2.63;;;5.60;99.90;;;;;;5016701;28;20222;-94
2022/09/22 02:33:51;;;;;;;2.65;2.45;;;5.50;99.90;;;;;;5017117;28;20219;-94
2022/09/22 02:36:44;;;;;;;3.05;2.33;;;5.50;99.90;;;;;;5016657;28;20230;-92
2022/09/22 02:39:46;;;;;;;3.83;3.15;;;5.50;99.90;;;;;;5016413;28;20207;-92
2022/09/22 02:42:52;;;;;;;2.10;1.90;;;5.50;99.90;;;;;;5016686;28;20722;-94
2022/09/22 02:52:20;;;;;;;2.60;2.30;;;5.50;99.90;;;;;;4980208;28;20202;-94
2022/09/22 02:54:48;;;;;;;4.65;2.75;;;5.50;99.90;;;;;;5016014;28;20234;-94
2022/09/22 02:57:14;;;;;;;3.40;2.67;;;5.40;99.90;;;;;;5016294;28;20207;-94
2022/09/22 02:59:41;;;;;;;2.13;1.92;;;5.40;99.90;;;;;;5023284;28;20202;-94
2022/09/22 03:02:08;;;;;;;2.40;2.20;;;5.40;99.90;;;;;;5027090;28;20215;-92
2022/09/22 03:04:36;;;;;;;3.05;2.10;;;5.40;99.90;;;;;;5016222;28;20211;-91
2022/09/22 03:07:03;;;;;;;2.40;2.20;;;5.30;99.90;;;;;;5018582;28;20214;-92
2022/09/22 03:09:29;;;;;;;2.70;2.50;;;5.30;99.90;;;;;;5018432;28;20207;-91
2022/09/22 03:11:56;;;;;;;3.38;2.35;;;5.30;99.90;;;;;;5019818;28;20656;-92
2022/09/22 03:14:23;;;;;;;2.83;2.53;;;5.30;99.90;;;;;;5019510;28;20203;-92
2022/09/22 03:16:49;;;;;;;4.47;3.40;;;5.20;99.90;;;;;;5020232;28;20250;-92
2022/09/22 03:19:16;;;;;;;3.10;2.33;;;5.20;99.90;;;;;;5019905;28;20214;-94
2022/09/22 03:21:44;;;;;;;3.08;2.50;;;5.20;99.90;;;;;;5016520;28;20655;-94
2022/09/22 03:24:11;;;;;;;3.00;2.75;;;5.20;99.90;;;;;;5016278;28;20213;-93
2022/09/22 03:26:38;;;;;;;2.80;2.50;;;5.20;99.90;;;;;;5015347;28;20529;-92
2022/09/22 03:29:05;;;;;;;3.22;2.58;;;5.20;99.90;;;;;;5015050;28;20246;-94
2022/09/22 03:31:32;;;;;;;2.55;2.35;;;5.20;99.90;;;;;;5014040;28;20435;-93
2022/09/22 03:33:59;;;;;;;3.03;2.65;;;5.10;99.90;;;;;;5014749;28;20207;-94
2022/09/22 03:36:28;;;;;;;2.78;2.58;;;5.10;99.90;;;;;;5013941;28;20641;-94
2022/09/22 03:39:00;;;;;;;2.80;2.60;;;5.10;99.90;;;;;;4994927;28;20197;-92
2022/09/22 03:41:27;;;;;;;2.85;2.10;;;5.10;99.90;;;;;;4992464;28;20238;-91
2022/09/22 03:43:54;;;;;;;3.00;2.75;;;5.10;99.90;;;;;;4993080;28;20546;-91
2022/09/22 03:46:21;;;;;;;3.08;2.72;;;5.10;99.90;;;;;;4993494;28;20220;-92
2022/09/22 03:48:47;;;;;;;2.55;2.35;;;5.10;99.90;;;;;;4993394;28;20219;-91
2022/09/22 03:51:14;;;;;;;3.45;2.63;;;5.10;99.90;;;;;;4994540;28;20203;-90
2022/09/22 03:53:41;;;;;;;3.10;2.80;;;5.10;99.90;;;;;;5001739;28;20203;-91
2022/09/22 03:56:11;;;;;;;2.30;2.10;;;5.10;99.90;;;;;;5009077;28;20235;-90
2022/09/22 03:58:38;;;;;;;2.55;2.35;;;5.10;99.90;;;;;;5001117;28;20207;-90
2022/09/22 04:04:09;;;;;;;2.38;2.00;;;5.00;99.90;;;;;;4993717;28;20262;-90
2022/09/22 04:06:37;;;;;;;2.75;2.08;;;5.10;99.90;;;;;;4994909;28;20693;-91
2022/09/22 04:09:04;;;;;;;3.20;2.47;;;5.10;99.90;;;;;;4995551;28;20212;-91
2022/09/22 04:22:06;;;;;;;3.05;2.47;;;5.00;99.90;;;;;;4990630;28;20573;-93
2022/09/22 04:24:33;;;;;;;2.85;2.28;;;5.00;99.90;;;;;;5018286;22;20216;-67
2022/09/22 04:27:00;;;;;;;2.30;2.10;;;4.90;99.90;;;;;;5026128;28;20568;-67
2022/09/22 04:29:26;;;;;;;2.47;1.92;;;5.00;99.90;;;;;;5008112;28;20635;-66
2022/09/22 04:31:53;;;;;;;3.10;2.45;;;5.00;99.90;;;;;;5007293;28;20613;-66
2022/09/22 04:34:20;;;;;;;2.45;2.22;;;4.90;99.90;;;;;;5008115;28;20223;-66
2022/09/22 04:36:46;;;;;;;3.47;2.25;;;4.90;99.90;;;;;;5007969;28;20223;-64
2022/09/22 04:39:14;;;;;;;2.42;2.22;;;4.90;99.90;;;;;;5008240;28;20215;-64
2022/09/22 04:41:41;;;;;;;2.88;2.65;;;4.90;99.90;;;;;;5007741;28;20652;-64
2022/09/22 04:44:08;;;;;;;3.15;2.30;;;4.90;99.90;;;;;;5010259;28;20241;-64
2022/09/22 04:46:34;;;;;;;3.05;2.63;;;4.90;99.90;;;;;;5010776;28;20202;-64
2022/09/22 04:49:01;;;;;;;1.92;1.83;;;4.90;99.90;;;;;;5010660;28;20206;-64
2022/09/22 04:51:28;;;;;;;4.00;2.53;;;4.90;99.90;;;;;;5010215;28;20202;-64
2022/09/22 04:53:54;;;;;;;2.90;2.60;;;4.90;99.90;;;;;;5010890;28;20230;-64
2022/09/22 04:56:22;;;;;;;2.97;2.55;;;4.90;99.90;;;;;;5010849;28;20642;-64
2022/09/22 04:58:49;;;;;;;3.65;2.95;;;4.90;99.90;;;;;;5010853;28;20212;-64
2022/09/22 05:01:16;;;;;;;3.38;2.63;;;4.80;99.90;;;;;;5010068;28;20201;-66
2022/09/22 05:03:42;;;;;;;5.88;3.03;;;4.90;99.90;;;;;;5010490;28;20258;-64
2022/09/22 05:06:09;;;;;;;2.92;2.70;;;4.90;99.90;;;;;;5010434;28;20244;-64
2022/09/22 05:08:36;;;;;;;3.10;2.90;;;4.90;99.90;;;;;;5010537;28;20204;-64
2022/09/22 05:11:05;;;;;;;3.58;3.13;;;4.90;99.90;;;;;;5010384;28;20212;-64
2022/09/22 05:13:34;;;;;;;4.00;3.00;;;4.80;99.90;;;;;;5009936;28;20233;-64
2022/09/22 05:16:01;;;;;;;3.05;2.80;;;4.80;99.90;;;;;;5010371;28;20231;-64
2022/09/22 05:18:27;;;;;;;6.18;3.65;;;4.80;99.90;;;;;;5010388;28;20199;-64
2022/09/22 05:20:54;;;;;;;4.78;3.15;;;4.80;99.90;;;;;;5010262;28;20304;-64
2022/09/22 05:23:21;;;;;;;3.47;3.00;;;4.80;99.90;;;;;;5011475;28;20713;-63
2022/09/22 05:25:47;;;;;;;3.33;2.80;;;4.80;99.90;;;;;;5013824;28;20598;-64
2022/09/22 05:28:14;;;;;;;3.22;2.92;;;4.80;99.90;;;;;;5013950;28;20205;-63
2022/09/22 05:30:42;;;;;;;3.60;3.28;;;4.80;99.90;;;;;;5014009;28;20207;-64
2022/09/22 05:33:09;;;;;;;2.60;2.38;;;4.80;99.90;;;;;;5013321;28;20223;-64
2022/09/22 05:35:35;;;;;;;4.05;3.10;;;4.80;99.90;;;;;;5013638;28;20220;-63
2022/09/22 05:38:02;;;;;;;3.22;2.60;;;4.80;99.90;;;;;;5013752;28;20207;-64
2022/09/22 05:40:29;;;;;;;3.08;2.47;;;4.80;99.90;;;;;;5013704;28;20301;-64
2022/09/22 05:42:56;;;;;;;2.90;2.10;;;4.90;99.90;;;;;;5012902;28;20224;-64
2022/09/22 05:45:23;;;;;;;3.85;2.80;;;4.90;99.90;;;;;;5013419;28;20661;-64
2022/09/22 05:47:52;;;;;;;4.03;3.15;;;4.90;99.90;;;;;;5013490;28;20226;-66
2022/09/22 05:50:20;;;;;;;4.03;3.10;;;4.90;99.90;;;;;;5013380;28;20231;-66
2022/09/22 05:52:46;;;;;;;4.53;3.22;;;4.90;99.90;;;;;;5012870;28;20584;-66
2022/09/22 05:55:14;;;;;;;3.33;3.03;;;4.90;99.90;;;;;;5013528;28;20210;-66
2022/09/22 05:57:42;;;;;;;3.30;2.92;;;5.00;99.90;;;;;;5013413;28;20203;-67
2022/09/22 06:00:11;;;;;;;5.53;3.25;;;5.00;99.90;;;;;;5013514;28;20207;-66
2022/09/22 06:02:37;;;;;;;2.85;2.47;;;5.00;99.90;;;;;;5012606;28;20201;-66
2022/09/22 06:05:06;;;;;;;5.05;3.20;;;5.00;99.90;;;;;;5046434;22;20199;-90
2022/09/22 06:07:44;;;;;;;3.55;2.58;;;5.10;99.90;;;;;;5037827;28;20207;-91
2022/09/22 06:10:11;;;;;;;3.95;2.55;;;5.10;99.90;;;;;;5037365;28;20210;-92
2022/09/22 06:12:38;;;;;;;4.00;3.13;;;5.20;99.90;;;;;;5038093;28;20210;-92
2022/09/22 06:15:09;;;;;;;3.10;2.50;;;5.30;99.90;;;;;;5037680;28;20233;-91
2022/09/22 06:17:36;;;;;;;5.18;3.10;;;5.30;99.90;;;;;;5037910;28;20569;-91
2022/09/22 06:20:08;;;;;;;2.92;2.67;;;5.40;99.90;;;;;;5038030;28;20238;-91
2022/09/22 06:26:12;;;;;;;4.93;2.92;;;5.50;99.90;;;;;;4989412;28;20221;-91
2022/09/22 06:28:39;;;;;;;4.65;2.90;;;5.60;99.90;;;;;;5038219;28;20234;-92
2022/09/22 06:31:06;;;;;;;2.78;2.22;;;5.70;99.90;;;;;;5040120;28;20207;-92
2022/09/22 06:33:34;;;;;;;3.35;3.05;;;5.80;99.90;;;;;;5036853;28;20309;-92
2022/09/22 06:36:03;;;;;;;5.10;2.80;;;5.90;99.90;;;;;;5037231;28;20222;-92
2022/09/22 06:38:43;;;;;;;5.05;3.53;;;6.00;99.90;;;;;;5037675;28;20276;-92
2022/09/22 06:41:10;;;;;;;2.80;2.50;;;6.10;99.90;;;;;;5038119;28;20203;-93
2022/09/22 06:43:37;;;;;;;3.40;2.95;;;6.30;99.90;;;;;;5037705;28;20208;-92
2022/09/22 06:46:04;;;;;;;5.38;3.28;;;6.40;99.90;;;;;;5037458;28;20260;-91
2022/09/22 06:48:31;;;;;;;4.35;3.60;;;6.50;99.90;;;;;;5037689;28;20202;-92
2022/09/22 06:50:58;;;;;;;3.72;3.40;;;6.70;99.90;;;;;;5037847;28;20210;-91
2022/09/22 06:53:27;;;;;;;5.10;3.35;;;6.80;99.90;;;;;;5038883;28;20206;-92
2022/09/22 06:55:54;;;;;;;3.55;3.25;;;7.00;99.90;;;;;;5039675;28;20321;-91
2022/09/22 06:58:21;;;;;;;6.85;3.08;;;7.10;99.90;;;;;;5047957;28;20274;-91
2022/09/22 07:00:49;;;;;;;4.45;3.08;;;7.30;99.90;;;;;;5059347;28;20191;-92
2022/09/22 07:03:20;;;;;;;2.90;2.70;;;7.40;99.90;;;;;;5045311;28;20205;-92
2022/09/22 07:05:55;;;;;;;4.78;4.00;;;7.60;99.90;;;;;;5037228;28;20718;-91
2022/09/22 07:08:24;;;;;;;3.47;2.90;;;7.70;99.90;;;;;;5037623;28;20220;-92
2022/09/22 07:11:08;;;;;;;4.65;3.80;;;7.80;99.90;;;;;;5036822;28;20653;-91
2022/09/22 07:13:49;;;;;;;3.55;3.25;;;8.00;99.90;;;;;;5037410;28;20201;-92
2022/09/22 07:16:17;;;;;;;4.80;3.63;;;8.20;99.90;;;;;;5037210;28;20225;-92
2022/09/22 07:18:46;;;;;;;3.75;3.35;;;8.30;99.90;;;;;;5037574;28;20208;-91
2022/09/22 07:21:28;;;;;;;5.28;3.60;;;8.50;99.90;;;;;;5037788;28;20289;-90
2022/09/22 07:23:57;;;;;;;4.30;3.65;;;8.70;99.90;;;;;;5038358;28;20654;-91
2022/09/22 07:26:29;;;;;;;5.45;4.05;;;8.90;99.90;;;;;;5039035;28;20313;-91
2022/09/22 07:28:59;;;;;;;8.73;3.45;;;9.00;99.90;;;;;;5039007;28;20293;-93
2022/09/22 07:31:29;;;;;;;4.07;3.08;;;9.20;99.90;;;;;;5038201;28;20576;-93
2022/09/22 07:33:58;;;;;;;4.20;3.40;;;9.40;99.90;;;;;;5037741;28;20235;-92
2022/09/22 07:36:29;;;;;;;3.80;3.40;;;9.50;99.90;;;;;;5038174;28;20225;-92
2022/09/22 07:38:58;;;;;;;3.25;2.90;;;9.70;99.90;;;;;;5038060;28;20621;-93
2022/09/22 07:41:41;;;;;;;2.97;2.67;;;9.80;99.90;;;;;;5037804;28;20207;-92
2022/09/22 07:46:55;;;;;;;15.60;3.40;;;10.20;99.90;;;;;;5036633;28;20272;-92
2022/09/22 07:49:22;;;;;;;5.00;3.60;;;10.40;99.90;;;;;;5037599;28;20205;-91
2022/09/22 07:51:53;;;;;;;10.85;3.33;;;10.60;99.90;;;;;;5037402;28;20217;-92
2022/09/22 07:54:21;;;;;;;3.85;3.55;;;10.70;99.90;;;;;;5039891;28;20683;-91
2022/09/22 07:59:30;;;;;;;4.65;2.35;;;11.00;99.90;;;;;;5036464;28;20321;-92
2022/09/22 08:01:59;;;;;;;4.03;2.80;;;11.20;99.90;;;;;;5036699;28;20210;-92
2022/09/22 08:04:30;;;;;;;3.53;3.15;;;11.40;99.90;;;;;;5037534;28;20202;-91
2022/09/22 08:07:00;;;;;;;4.25;2.88;;;11.60;99.90;;;;;;5036505;28;20325;-92
2022/09/22 08:09:32;;;;;;;6.45;3.47;;;11.70;99.90;;;;;;5036376;28;20210;-91
2022/09/22 08:12:03;;;;;;;5.65;3.17;;;11.90;99.90;;;;;;5036165;28;20206;-91
2022/09/22 08:14:30;;;;;;;4.35;2.53;;;12.00;99.90;;;;;;5036566;28;20210;-91
2022/09/22 08:16:57;;;;;;;3.88;3.47;;;12.20;99.90;;;;;;5036667;28;20232;-91
2022/09/22 08:22:05;;;;;;;3.63;2.83;;;12.50;99.90;;;;;;5037062;28;20282;-91
2022/09/22 08:24:33;;;;;;;5.03;2.80;;;12.60;99.90;;;;;;5037020;28;20488;-91
2022/09/22 08:27:04;;;;;;;2.70;2.30;;;12.80;99.90;;;;;;5036396;28;20514;-91
2022/09/22 08:32:12;;;;;;;4.20;2.47;;;13.10;99.90;;;;;;5033337;28;20457;-91
2022/09/22 08:34:39;;;;;;;2.50;2.30;;;13.20;99.90;;;;;;5037184;28;20460;-93
2022/09/22 08:37:09;;;;;;;4.10;2.60;;;13.20;99.90;;;;;;5037519;28;20491;-91
2022/09/22 08:39:39;;;;;;;3.20;2.17;;;13.30;99.90;;;;;;5036850;28;20876;-92
2022/09/22 09:09:26;;;;;;;2.10;1.77;;;14.70;99.90;;;;;;5001854;28;20497;-93
2022/09/22 09:29:15;;;;;;;1.60;1.50;;;15.80;99.90;;;;;;5040551;28;20449;-93
2022/09/22 09:39:16;;;;;;;2.70;1.73;;;16.20;99.90;;;;;;5040623;28;20446;-93
2022/09/22 09:49:10;;;;;;;1.60;1.40;;;16.70;99.90;;;;;;5036793;28;20475;-92
2022/09/22 09:52:11;;;;;;;1.83;1.43;;;16.90;99.90;;;;;;5040489;28;20468;-91
2022/09/22 09:57:29;;;;;;;2.67;1.87;;;17.20;99.90;;;;;;5011538;28;20478;-67
2022/09/22 10:00:31;;;;;;;1.97;1.40;;;17.30;99.90;;;;;;5013015;28;20481;-67
2022/09/22 10:03:06;;;;;;;2.30;1.60;;;17.20;99.90;;;;;;5012584;28;20592;-67
2022/09/22 10:05:36;;;;;;;1.33;1.23;;;17.30;99.90;;;;;;5013202;28;20518;-67
2022/09/22 10:08:15;;;;;;;1.73;1.40;;;17.40;99.90;;;;;;5012584;28;20504;-67
2022/09/22 10:10:42;;;;;;;1.27;1.13;;;17.50;99.90;;;;;;5013144;28;20458;-67
2022/09/22 10:13:29;;;;;;;1.70;1.60;;;17.70;99.90;;;;;;5012243;28;20481;-67
2022/09/22 10:16:05;;;;;;;1.70;1.50;;;17.80;99.90;;;;;;5012968;28;20558;-67
2022/09/22 10:18:36;;;;;;;2.27;1.30;;;17.90;99.90;;;;;;5012981;28;20466;-67
2022/09/22 10:21:06;;;;;;;1.20;1.10;;;18.00;99.90;;;;;;5012625;28;20824;-67
2022/09/22 10:23:33;;;;;;;1.57;1.30;;;18.10;99.90;;;;;;5012634;28;20513;-67
2022/09/22 10:26:25;;;;;;;1.50;1.40;;;18.20;99.90;;;;;;5012691;28;20469;-67
2022/09/22 10:29:09;;;;;;;2.43;1.53;;;18.30;99.90;;;;;;5012752;28;20470;-67
2022/09/22 10:31:37;;;;;;;1.20;1.10;;;18.40;99.90;;;;;;4993960;28;20528;-67
2022/09/22 10:34:05;;;;;;;1.73;1.50;;;18.40;99.90;;;;;;5012576;28;20569;-67
2022/09/22 10:36:35;;;;;;;1.63;1.50;;;18.50;99.90;;;;;;5011233;28;20543;-67
2022/09/22 10:39:10;;;;;;;2.10;1.50;;;18.40;99.90;;;;;;5012895;28;20489;-67
2022/09/22 10:41:38;;;;;;;1.40;1.30;;;18.50;99.90;;;;;;5012147;28;20469;-67
2022/09/22 10:44:13;;;;;;;1.30;1.17;;;18.60;99.90;;;;;;5012063;28;20482;-67
2022/09/22 10:47:05;;;;;;;1.33;1.20;;;18.70;99.90;;;;;;5012707;28;20472;-67
2022/09/22 10:49:48;;;;;;;1.40;1.23;;;18.70;99.90;;;;;;5012444;28;20529;-67
2022/09/22 10:52:22;;;;;;;2.67;1.73;;;18.80;99.90;;;;;;5011670;28;20560;-67
2022/09/22 10:55:08;;;;;;;1.63;1.33;;;18.90;99.90;;;;;;5012375;28;20491;-67
2022/09/22 10:57:52;;;;;;;1.27;1.13;;;18.90;99.90;;;;;;5012243;28;20485;-67
2022/09/22 11:00:20;;;;;;;1.83;1.23;;;19.00;99.90;;;;;;5011960;28;20516;-67
2022/09/22 11:03:10;;;;;;;1.77;1.20;;;19.00;99.90;;;;;;5011840;28;20467;-67
2022/09/22 11:14:27;;;;;;;1.50;1.13;;;19.40;99.90;;;;;;5011933;28;20502;-67
2022/09/22 11:17:15;;;;;;;1.30;1.20;;;19.50;99.90;;;;;;5011877;28;20485;-67
2022/09/22 11:20:02;;;;;;;2.23;1.13;;;19.60;99.90;;;;;;5011580;28;20501;-67
2022/09/22 11:22:52;;;;;;;1.27;1.17;;;19.70;99.90;;;;;;5010957;28;20835;-67
2022/09/22 11:25:30;;;;;;;1.07;0.97;;;19.80;99.90;;;;;;5011688;28;20948;-67
2022/09/22 11:28:16;;;;;;;1.10;1.00;;;19.70;99.90;;;;;;5011691;28;20489;-67
2022/09/22 11:30:46;;;;;;;1.73;1.23;;;19.80;98.70;;;;;;5011884;28;20531;-67
2022/09/22 11:33:35;;;;;;;1.90;1.40;;;19.80;98.40;;;;;;5010696;28;21006;-67
2022/09/22 11:36:15;;;;;;;1.20;1.10;;;19.90;99.90;;;;;;5011700;28;20471;-67
2022/09/22 11:39:00;;;;;;;1.20;0.97;;;19.90;99.80;;;;;;5011412;28;20494;-67
2022/09/22 11:41:31;;;;;;;1.40;1.10;;;20.00;99.80;;;;;;5011046;28;20493;-67
2022/09/22 11:44:25;;;;;;;1.10;1.00;;;20.00;99.10;;;;;;5011442;28;20869;-67
2022/09/22 11:47:14;;;;;;;1.10;1.00;;;19.90;99.30;;;;;;5002357;28;20525;-67
2022/09/22 11:50:13;;;;;;;1.57;1.10;;;19.90;99.00;;;;;;4991191;28;20458;-67
2022/09/22 11:52:56;;;;;;;1.30;1.07;;;19.80;99.20;;;;;;4986550;28;21015;-66
2022/09/22 11:55:34;;;;;;;1.10;0.90;;;19.70;98.20;;;;;;5011194;28;20458;-67
2022/09/22 11:58:07;;;;;;;2.13;1.20;;;19.80;98.30;;;;;;5011599;28;20580;-67
2022/09/22 12:00:38;;;;;;;2.10;1.30;;;19.90;98.20;;;;;;5011624;28;20700;-67
2022/09/22 12:03:08;;;;;;;1.27;1.17;;;19.80;97.70;;;;;;5010829;28;20482;-67
2022/09/22 12:05:40;;;;;;;1.30;1.00;;;19.80;98.90;;;;;;5038576;22;20520;-91
2022/09/22 12:08:13;;;;;;;1.13;1.03;;;19.80;98.50;;;;;;5035668;28;20453;-93
2022/09/22 12:10:43;;;;;;;1.23;0.97;;;19.80;98.00;;;;;;5038445;28;20469;-92
2022/09/22 12:13:15;;;;;;;1.23;1.10;;;19.80;98.10;;;;;;5036293;28;20489;-92
2022/09/22 12:15:50;;;;;;;1.10;1.00;;;19.80;97.40;;;;;;5036742;28;20483;-92
2022/09/22 12:18:23;;;;;;;1.40;1.20;;;20.00;98.80;;;;;;5036981;28;20488;-93
2022/09/22 12:20:58;;;;;;;1.07;0.90;;;20.10;97.10;;;;;;5039419;28;20461;-92
2022/09/22 12:23:50;;;;;;;1.37;1.13;;;20.10;97.70;;;;;;5036498;28;20563;-92
2022/09/22 12:26:27;;;;;;;1.97;1.00;;;20.00;96.60;;;;;;5035604;28;20490;-91
2022/09/22 12:28:57;;;;;;;1.20;1.10;;;20.00;96.30;;;;;;5035890;28;20460;-92
2022/09/22 12:31:33;;;;;;;1.00;0.90;;;19.90;96.40;;;;;;5036351;28;20470;-92
2022/09/22 12:34:01;;;;;;;3.53;1.30;;;19.90;96.40;;;;;;5043183;28;20653;-92
2022/09/22 12:36:30;;;;;;;1.50;1.20;;;19.80;95.40;;;;;;5041609;28;20508;-92
2022/09/22 12:39:16;;;;;;;1.20;1.10;;;19.90;97.80;;;;;;5041980;28;20556;-92
2022/09/22 12:41:46;;;;;;;1.47;1.37;;;19.90;97.60;;;;;;5042641;28;20507;-93
2022/09/22 12:44:18;;;;;;;2.03;1.40;;;20.00;97.50;;;;;;5043457;28;20505;-92
2022/09/22 12:46:45;;;;;;;1.17;1.07;;;20.00;97.00;;;;;;5042062;28;20486;-93
2022/09/22 12:49:16;;;;;;;1.20;1.10;;;20.00;97.90;;;;;;5042295;28;20571;-92
2022/09/22 12:51:44;;;;;;;1.20;1.10;;;20.00;97.90;;;;;;5044244;28;20472;-92
2022/09/22 12:54:36;;;;;;;1.33;1.20;;;20.20;97.80;;;;;;5041749;28;20466;-92
2022/09/22 12:57:20;;;;;;;1.30;1.20;;;20.30;97.80;;;;;;5031011;28;20479;-92
2022/09/22 12:59:57;;;;;;;1.43;1.17;;;20.30;97.00;;;;;;5041601;28;20967;-93
2022/09/22 13:02:30;;;;;;;1.13;1.03;;;20.30;97.00;;;;;;5047791;28;20459;-92
2022/09/22 13:05:32;;;;;;;1.53;1.23;;;20.20;96.80;;;;;;5045721;28;20472;-91
2022/09/22 13:07:59;;;;;;;1.73;1.40;;;20.10;96.60;;;;;;5041271;28;20456;-92
2022/09/22 13:10:42;;;;;;;1.27;1.17;;;20.10;96.30;;;;;;5041791;28;20463;-92
2022/09/22 13:13:11;;;;;;;1.20;1.10;;;20.00;96.60;;;;;;5041574;28;20458;-92
2022/09/22 13:15:58;;;;;;;1.40;1.13;;;20.00;96.60;;;;;;5041729;28;20930;-91
2022/09/22 13:18:29;;;;;;;1.20;1.00;;;20.00;97.00;;;;;;5040965;28;20476;-92
2022/09/22 13:20:56;;;;;;;2.00;1.20;;;20.10;96.70;;;;;;5041511;28;20851;-92
2022/09/22 13:23:23;;;;;;;2.07;1.33;;;20.20;97.10;;;;;;5042495;28;20461;-92
2022/09/22 13:25:51;;;;;;;1.30;1.20;;;20.20;97.10;;;;;;5041808;28;20481;-92
2022/09/22 13:28:19;;;;;;;1.47;1.20;;;20.30;96.80;;;;;;5041687;28;20449;-92
2022/09/22 13:30:57;;;;;;;1.10;1.00;;;20.40;96.30;;;;;;5045370;28;20460;-92
2022/09/22 13:33:29;;;;;;;1.10;1.00;;;20.40;96.30;;;;;;5043325;28;20468;-92
2022/09/22 13:36:01;;;;;;;1.10;1.00;;;20.20;95.50;;;;;;5045975;28;20496;-92
2022/09/22 13:38:38;;;;;;;1.40;0.90;;;20.20;96.10;;;;;;5044105;28;20491;-93
2022/09/22 13:41:10;;;;;;;1.67;1.50;;;20.30;96.00;;;;;;5045460;28;21042;-92
2022/09/22 13:43:40;;;;;;;1.37;1.10;;;20.30;96.40;;;;;;5043256;28;20487;-92
2022/09/22 13:46:18;;;;;;;1.10;1.00;;;20.20;95.70;;;;;;5041433;28;20491;-92
2022/09/22 13:48:47;;;;;;;1.70;1.50;;;20.10;94.50;;;;;;5044061;28;20465;-92
2022/09/22 13:51:16;;;;;;;1.40;1.30;;;20.20;95.90;;;;;;5043236;28;20467;-91
2022/09/22 13:53:47;;;;;;;1.23;1.03;;;20.20;96.30;;;;;;5042719;28;20465;-92
2022/09/22 13:56:17;;;;;;;2.67;1.20;;;20.20;95.70;;;;;;5041502;28;20535;-92
2022/09/22 13:58:45;;;;;;;1.30;1.20;;;20.20;96.00;;;;;;5041963;28;20546;-92
2022/09/22 14:01:14;;;;;;;2.93;1.27;;;20.20;96.00;;;;;;5041606;28;21315;-90
2022/09/22 14:03:42;;;;;;;1.37;1.10;;;20.20;95.40;;;;;;5042967;28;20491;-92
2022/09/22 14:06:14;;;;;;;1.77;1.53;;;20.20;96.10;;;;;;5044947;28;20502;-92
2022/09/22 14:08:42;;;;;;;1.30;1.20;;;20.20;95.90;;;;;;5046236;28;20465;-92
2022/09/22 14:11:13;;;;;;;2.70;1.20;;;20.20;95.90;;;;;;5044711;28;20472;-91
2022/09/22 14:13:55;;;;;;;1.10;1.00;;;20.20;96.00;;;;;;5045888;28;20471;-92
2022/09/22 14:16:26;;;;;;;1.20;0.90;;;20.20;96.10;;;;;;5046811;28;20492;-91
2022/09/22 14:18:59;;;;;;;1.43;1.30;;;20.20;95.90;;;;;;5047735;28;20483;-92
2022/09/22 14:21:27;;;;;;;1.73;1.30;;;20.20;96.40;;;;;;5042888;28;20503;-92
2022/09/22 14:23:56;;;;;;;2.30;1.60;;;20.10;94.10;;;;;;5043037;28;20810;-92
2022/09/22 14:26:32;;;;;;;1.30;1.20;;;20.00;95.40;;;;;;5041947;28;20489;-93
2022/09/22 14:29:08;;;;;;;1.60;1.20;;;20.00;95.80;;;;;;5041840;28;20460;-92
2022/09/22 14:31:35;;;;;;;1.30;1.10;;;20.00;95.60;;;;;;5043660;28;20464;-92
2022/09/22 14:34:06;;;;;;;1.40;1.00;;;20.00;96.30;;;;;;5045775;28;20468;-92
2022/09/22 14:37:15;;;;;;;1.60;1.50;;;20.00;96.70;;;;;;5043096;28;20886;-92
2022/09/22 14:39:46;;;;;;;1.23;1.00;;;20.00;96.80;;;;;;5040427;28;20452;-92
2022/09/22 14:42:20;;;;;;;1.57;1.13;;;20.00;96.00;;;;;;5037563;28;20473;-91
2022/09/22 14:44:48;;;;;;;1.10;1.00;;;19.80;95.90;;;;;;5037315;28;20444;-92
2022/09/22 14:47:24;;;;;;;1.20;1.10;;;19.80;95.90;;;;;;5042712;28;20225;-92
2022/09/22 14:50:10;;;;;;;1.20;1.10;;;19.80;96.60;;;;;;5048999;28;20948;-92
2022/09/22 14:52:42;;;;;;;1.20;1.00;;;19.80;96.20;;;;;;5054809;28;20463;-93
2022/09/22 14:55:16;;;;;;;1.97;1.30;;;19.80;97.40;;;;;;5045293;28;20469;-92
2022/09/22 14:57:49;;;;;;;3.00;1.27;;;19.80;95.60;;;;;;5037017;28;20491;-91
2022/09/22 15:03:06;;;;;;;1.50;1.20;;;19.60;96.20;;;;;;5034148;28;20495;-91
2022/09/22 15:05:33;;;;;;;1.50;1.10;;;19.60;95.10;;;;;;5029239;28;21026;-91
2022/09/22 15:08:19;;;;;;;1.03;0.93;;;19.50;96.20;;;;;;5031309;28;20547;-92